createdAt,value
2023-05-20T00:01:41.108Z,99.90
2023-05-20T00:04:08.795Z,99.90
2023-05-20T00:06:36.198Z,99.90
2023-05-20T00:09:04.073Z,99.90
2023-05-20T00:11:31.368Z,99.90
2023-05-20T00:13:58.082Z,99.90
2023-05-20T00:16:24.791Z,99.90
2023-05-20T00:18:51.395Z,99.90
2023-05-20T00:21:18.487Z,99.90
2023-05-20T00:23:45.248Z,99.90
2023-05-20T00:26:11.839Z,99.90
2023-05-20T00:28:38.427Z,99.90
2023-05-20T00:31:05.252Z,99.90
2023-05-20T00:33:31.851Z,99.90
2023-05-20T00:35:58.460Z,99.90
2023-05-20T00:38:25.009Z,99.90
2023-05-20T00:40:51.580Z,99.90
2023-05-20T00:43:18.202Z,99.90
2023-05-20T00:45:45.247Z,99.90
2023-05-20T00:48:11.966Z,99.90
2023-05-20T00:50:39.092Z,99.90
2023-05-20T00:53:06.220Z,99.90
2023-05-20T00:55:32.949Z,99.90
2023-05-20T00:57:59.826Z,99.90
2023-05-20T01:00:26.403Z,99.90
2023-05-20T01:02:53.409Z,99.90
2023-05-20T01:05:20.040Z,99.90
2023-05-20T01:07:46.684Z,99.90
2023-05-20T01:10:13.293Z,99.90
2023-05-20T01:12:45.925Z,99.90
2023-05-20T01:15:13.854Z,99.90
2023-05-20T01:17:45.027Z,99.90
2023-05-20T01:20:13.271Z,99.90
2023-05-20T01:22:49.858Z,99.90
2023-05-20T01:25:16.449Z,99.90
2023-05-20T01:27:43.260Z,99.90
2023-05-20T01:30:10.639Z,99.90
2023-05-20T01:32:43.790Z,99.90
2023-05-20T01:35:10.387Z,99.90
2023-05-20T01:37:39.387Z,99.90
2023-05-20T01:40:09.424Z,99.90
2023-05-20T01:42:36.624Z,99.90
2023-05-20T01:45:03.848Z,99.90
2023-05-20T01:47:31.017Z,99.90
2023-05-20T01:49:57.614Z,99.90
2023-05-20T01:52:24.161Z,99.90
2023-05-20T01:54:53.765Z,99.90
2023-05-20T01:57:21.231Z,99.90
2023-05-20T01:59:48.232Z,99.90
2023-05-20T02:02:15.082Z,99.90
2023-05-20T02:04:43.971Z,99.90
2023-05-20T02:07:10.591Z,99.90
2023-05-20T02:09:37.579Z,99.90
2023-05-20T02:12:04.394Z,99.90
2023-05-20T02:14:31.038Z,99.90
2023-05-20T02:16:57.900Z,99.90
2023-05-20T02:19:24.746Z,99.90
2023-05-20T02:21:51.406Z,99.90
2023-05-20T02:24:18.139Z,99.90
2023-05-20T02:26:46.736Z,99.90
2023-05-20T02:29:15.066Z,99.90
2023-05-20T02:31:41.632Z,99.90
2023-05-20T02:34:08.304Z,99.90
2023-05-20T02:36:35.061Z,99.90
2023-05-20T02:39:01.637Z,99.90
2023-05-20T02:41:28.191Z,99.90
2023-05-20T02:43:54.756Z,99.90
2023-05-20T02:46:21.511Z,99.90
2023-05-20T02:48:48.152Z,99.90
2023-05-20T02:51:14.836Z,99.90
2023-05-20T02:53:41.395Z,99.90
2023-05-20T02:56:08.695Z,99.90
2023-05-20T02:58:35.627Z,99.90
2023-05-20T03:01:02.723Z,99.90
2023-05-20T03:03:29.576Z,99.90
2023-05-20T03:05:56.225Z,99.90
2023-05-20T03:08:23.066Z,99.90
2023-05-20T03:10:49.677Z,99.90
2023-05-20T03:13:16.487Z,99.90
2023-05-20T03:15:45.457Z,99.90
2023-05-20T03:18:13.662Z,99.90
2023-05-20T03:20:41.504Z,99.90
2023-05-20T03:23:08.799Z,99.90
2023-05-20T03:25:36.231Z,99.90
2023-05-20T03:28:02.944Z,99.90
2023-05-20T03:30:29.601Z,99.90
2023-05-20T03:32:57.886Z,99.90
2023-05-20T03:35:25.044Z,99.90
2023-05-20T03:37:53.373Z,99.90
2023-05-20T03:40:23.576Z,99.90
2023-05-20T03:42:51.964Z,99.90
2023-05-20T03:45:18.645Z,99.90
2023-05-20T03:47:45.305Z,99.90
2023-05-20T03:50:11.934Z,99.90
2023-05-20T03:52:38.549Z,99.90
2023-05-20T03:55:05.301Z,99.90
2023-05-20T03:57:32.283Z,99.90
2023-05-20T03:59:58.871Z,99.90
2023-05-20T04:02:25.694Z,99.90
2023-05-20T04:04:53.707Z,99.90
2023-05-20T04:07:20.345Z,99.90
2023-05-20T04:09:47.024Z,99.90
2023-05-20T04:12:13.983Z,99.90
2023-05-20T04:14:42.161Z,99.90
2023-05-20T04:17:09.550Z,99.90
2023-05-20T04:19:38.263Z,99.90
2023-05-20T04:22:05.059Z,99.90
2023-05-20T04:24:31.889Z,99.90
2023-05-20T04:26:58.459Z,99.90
2023-05-20T04:29:25.162Z,99.90
2023-05-20T04:31:52.153Z,99.90
2023-05-20T04:34:20.088Z,99.90
2023-05-20T04:36:47.103Z,99.90
2023-05-20T04:39:16.392Z,99.90
2023-05-20T04:41:43.377Z,99.90
2023-05-20T04:44:09.947Z,99.90
2023-05-20T04:46:36.545Z,99.90
2023-05-20T04:49:04.503Z,99.90
2023-05-20T04:51:31.324Z,99.90
2023-05-20T04:53:59.139Z,99.90
2023-05-20T04:56:26.156Z,99.90
2023-05-20T04:58:52.713Z,99.90
2023-05-20T05:01:19.440Z,99.90
2023-05-20T05:03:46.544Z,99.90
2023-05-20T05:06:13.135Z,99.90
2023-05-20T05:08:39.704Z,99.90
2023-05-20T05:11:07.267Z,99.90
2023-05-20T05:13:33.846Z,99.90
2023-05-20T05:16:01.158Z,99.90
2023-05-20T05:18:27.908Z,99.90
2023-05-20T05:21:04.223Z,99.90
2023-05-20T05:23:31.174Z,99.90
2023-05-20T05:25:58.977Z,99.90
2023-05-20T05:28:26.553Z,99.90
2023-05-20T05:30:54.588Z,99.90
2023-05-20T05:33:21.216Z,99.90
2023-05-20T05:35:47.970Z,99.90
2023-05-20T05:38:17.938Z,99.90
2023-05-20T05:40:46.250Z,99.90
2023-05-20T05:43:14.047Z,99.90
2023-05-20T05:45:43.342Z,99.90
2023-05-20T05:48:09.931Z,99.90
2023-05-20T05:50:36.498Z,99.90
2023-05-20T05:53:04.010Z,99.90
2023-05-20T05:55:32.358Z,99.90
2023-05-20T05:58:00.235Z,99.90
2023-05-20T06:00:26.938Z,99.90
2023-05-20T06:02:53.710Z,99.90
2023-05-20T06:05:20.483Z,99.90
2023-05-20T06:07:48.802Z,99.90
2023-05-20T06:10:15.515Z,99.90
2023-05-20T06:12:42.080Z,99.90
2023-05-20T06:15:08.943Z,99.90
2023-05-20T06:17:35.555Z,99.90
2023-05-20T06:20:02.299Z,99.90
2023-05-20T06:22:28.953Z,99.90
2023-05-20T06:24:57.428Z,99.90
2023-05-20T06:27:24.115Z,99.90
2023-05-20T06:29:50.718Z,99.90
2023-05-20T06:32:17.318Z,99.90
2023-05-20T06:34:43.944Z,99.90
2023-05-20T06:37:11.900Z,99.90
2023-05-20T06:39:38.443Z,99.90
2023-05-20T06:42:05.071Z,99.90
2023-05-20T06:44:31.681Z,99.90
2023-05-20T06:46:58.233Z,99.90
2023-05-20T06:49:25.651Z,99.90
2023-05-20T06:51:52.558Z,99.90
2023-05-20T06:54:19.088Z,99.90
2023-05-20T06:56:45.795Z,99.90
2023-05-20T06:59:12.358Z,99.90
2023-05-20T07:01:39.072Z,99.90
2023-05-20T07:04:05.794Z,99.90
2023-05-20T07:06:32.514Z,99.90
2023-05-20T07:08:59.076Z,99.90
2023-05-20T07:11:26.785Z,99.90
2023-05-20T07:13:53.660Z,99.90
2023-05-20T07:16:20.534Z,99.90
2023-05-20T07:18:47.177Z,99.90
2023-05-20T07:21:13.838Z,99.90
2023-05-20T07:23:40.619Z,99.90
2023-05-20T07:26:07.255Z,99.90
2023-05-20T07:28:34.570Z,99.90
2023-05-20T07:31:01.116Z,99.90
2023-05-20T07:33:27.730Z,99.90
2023-05-20T07:35:54.587Z,99.90
2023-05-20T07:38:21.295Z,99.90
2023-05-20T07:40:47.853Z,99.90
2023-05-20T07:43:14.440Z,99.90
2023-05-20T07:45:41.031Z,99.90
2023-05-20T07:48:08.870Z,99.90
2023-05-20T07:50:36.400Z,99.90
2023-05-20T07:53:03.174Z,99.90
2023-05-20T07:55:29.820Z,99.90
2023-05-20T07:57:56.393Z,99.90
2023-05-20T08:00:23.080Z,99.90
2023-05-20T08:02:49.878Z,99.90
2023-05-20T08:05:16.732Z,99.90
2023-05-20T08:07:43.298Z,99.90
2023-05-20T08:10:09.997Z,99.90
2023-05-20T08:12:36.618Z,99.90
2023-05-20T08:15:03.394Z,99.90
2023-05-20T08:17:30.385Z,99.90
2023-05-20T08:19:56.958Z,99.90
2023-05-20T08:22:23.517Z,99.90
2023-05-20T08:24:50.053Z,99.90
2023-05-20T08:27:16.615Z,99.90
2023-05-20T08:29:44.450Z,99.90
2023-05-20T08:32:11.259Z,99.90
2023-05-20T08:34:37.911Z,99.90
2023-05-20T08:37:04.550Z,99.90
2023-05-20T08:39:31.104Z,99.90
2023-05-20T08:41:57.968Z,99.90
2023-05-20T08:44:26.083Z,99.90
2023-05-20T08:46:53.022Z,99.90
2023-05-20T08:49:20.121Z,99.90
2023-05-20T08:51:47.318Z,99.90
2023-05-20T08:54:14.699Z,99.90
2023-05-20T08:56:42.038Z,99.90
2023-05-20T08:59:08.655Z,99.90
2023-05-20T09:01:39.909Z,99.90
2023-05-20T09:04:07.806Z,99.90
2023-05-20T09:06:42.953Z,99.90
2023-05-20T09:09:10.738Z,99.90
2023-05-20T09:11:37.481Z,99.90
2023-05-20T09:14:04.021Z,99.90
2023-05-20T09:16:30.678Z,99.90
2023-05-20T09:18:57.628Z,99.90
2023-05-20T09:21:28.228Z,99.90
2023-05-20T09:23:57.414Z,99.90
2023-05-20T09:26:24.914Z,99.90
2023-05-20T09:28:51.598Z,99.90
2023-05-20T09:31:18.246Z,99.90
2023-05-20T09:33:44.872Z,99.90
2023-05-20T09:36:11.700Z,99.90
2023-05-20T09:38:40.126Z,99.90
2023-05-20T09:41:08.711Z,99.90
2023-05-20T09:43:36.255Z,99.90
2023-05-20T09:46:04.260Z,99.90
2023-05-20T09:48:34.041Z,99.90
2023-05-20T09:51:01.381Z,99.90
2023-05-20T09:53:28.344Z,99.90
2023-05-20T09:55:55.853Z,99.90
2023-05-20T09:58:22.885Z,99.90
2023-05-20T10:00:49.832Z,99.90
2023-05-20T10:03:17.150Z,99.90
2023-05-20T10:05:47.447Z,99.90
2023-05-20T10:08:26.068Z,99.90
2023-05-20T10:10:57.279Z,99.90
2023-05-20T10:13:46.569Z,99.90
2023-05-20T10:16:13.148Z,99.90
2023-05-20T10:18:52.721Z,99.90
2023-05-20T10:21:22.470Z,99.90
2023-05-20T10:23:49.061Z,99.90
2023-05-20T10:26:15.640Z,99.90
2023-05-20T10:28:43.131Z,99.90
2023-05-20T10:31:22.727Z,99.90
2023-05-20T10:33:52.015Z,99.90
2023-05-20T10:36:28.728Z,99.90
2023-05-20T10:38:56.066Z,99.90
2023-05-20T10:41:29.325Z,99.90
2023-05-20T10:43:59.611Z,99.90
2023-05-20T10:46:33.854Z,99.90
2023-05-20T10:49:24.195Z,99.90
2023-05-20T10:51:52.094Z,99.90
2023-05-20T10:54:18.849Z,99.90
2023-05-20T10:56:52.029Z,99.90
2023-05-20T10:59:18.852Z,99.90
2023-05-20T11:01:46.385Z,99.90
2023-05-20T11:04:14.055Z,99.90
2023-05-20T11:06:49.594Z,99.90
2023-05-20T11:09:16.434Z,99.90
2023-05-20T11:11:42.998Z,99.90
2023-05-20T11:14:13.535Z,99.90
2023-05-20T11:16:40.740Z,99.90
2023-05-20T11:19:08.548Z,99.90
2023-05-20T11:21:35.356Z,99.90
2023-05-20T11:24:01.904Z,99.90
2023-05-20T11:26:29.175Z,99.90
2023-05-20T11:28:56.278Z,99.90
2023-05-20T11:31:24.521Z,99.90
2023-05-20T11:33:52.131Z,99.90
2023-05-20T11:36:27.476Z,99.90
2023-05-20T11:38:54.810Z,99.90
2023-05-20T11:41:25.500Z,99.90
2023-05-20T11:43:59.216Z,99.90
2023-05-20T11:46:26.257Z,99.90
2023-05-20T11:48:55.715Z,99.90
2023-05-20T11:51:29.120Z,99.90
2023-05-20T11:54:02.089Z,99.90
2023-05-20T11:56:30.511Z,99.90
2023-05-20T11:58:58.365Z,99.90
2023-05-20T12:01:25.187Z,99.90
2023-05-20T12:03:52.192Z,99.90
2023-05-20T12:06:19.301Z,99.90
2023-05-20T12:08:46.481Z,99.90
2023-05-20T12:11:13.346Z,99.90
2023-05-20T12:13:40.193Z,99.90
2023-05-20T12:16:06.895Z,99.90
2023-05-20T12:18:33.494Z,99.90
2023-05-20T12:21:00.635Z,99.90
2023-05-20T12:23:27.398Z,99.90
2023-05-20T12:25:54.014Z,99.90
2023-05-20T12:28:21.613Z,99.90
2023-05-20T12:30:48.185Z,99.90
2023-05-20T12:33:14.764Z,99.90
2023-05-20T12:35:42.183Z,99.90
2023-05-20T12:38:09.072Z,99.90
2023-05-20T12:40:36.245Z,99.90
2023-05-20T12:43:03.899Z,99.90
2023-05-20T12:45:30.499Z,99.90
2023-05-20T12:47:57.485Z,99.90
2023-05-20T12:50:24.718Z,99.90
2023-05-20T12:52:51.442Z,99.90
2023-05-20T12:55:18.000Z,99.90
2023-05-20T12:57:45.433Z,99.90
2023-05-20T13:00:12.948Z,99.90
2023-05-20T13:02:40.242Z,99.90
2023-05-20T13:05:07.063Z,99.90
2023-05-20T13:07:33.973Z,99.90
2023-05-20T13:10:01.026Z,99.90
2023-05-20T13:12:27.783Z,99.90
2023-05-20T13:14:54.383Z,99.90
2023-05-20T13:17:21.035Z,99.90
2023-05-20T13:19:47.671Z,99.90
2023-05-20T13:22:14.236Z,99.90
2023-05-20T13:24:40.789Z,99.90
2023-05-20T13:27:07.356Z,99.90
2023-05-20T13:29:33.924Z,99.90
2023-05-20T13:32:02.082Z,99.90
2023-05-20T13:34:29.973Z,99.90
2023-05-20T13:36:56.545Z,99.90
2023-05-20T13:39:23.197Z,99.90
2023-05-20T13:41:49.881Z,99.90
2023-05-20T13:44:16.506Z,99.90
2023-05-20T13:46:43.246Z,99.90
2023-05-20T13:49:09.854Z,99.90
2023-05-20T13:51:36.524Z,99.90
2023-05-20T13:54:03.721Z,99.90
2023-05-20T13:56:30.330Z,99.90
2023-05-20T13:58:57.251Z,99.90
2023-05-20T14:01:24.209Z,99.90
2023-05-20T14:03:51.213Z,99.90
2023-05-20T14:06:18.968Z,99.90
2023-05-20T14:08:46.179Z,99.90
2023-05-20T14:11:12.882Z,99.90
2023-05-20T14:13:39.482Z,99.90
2023-05-20T14:16:06.116Z,99.90
2023-05-20T14:18:32.715Z,99.90
2023-05-20T14:20:59.357Z,99.90
2023-05-20T14:23:25.895Z,99.90
2023-05-20T14:25:52.482Z,99.90
2023-05-20T14:28:19.049Z,99.90
2023-05-20T14:30:45.589Z,99.90
2023-05-20T14:33:12.312Z,99.90
2023-05-20T14:35:38.937Z,99.90
2023-05-20T14:38:05.486Z,99.90
2023-05-20T14:40:32.089Z,99.90
2023-05-20T14:42:58.697Z,99.90
2023-05-20T14:45:25.450Z,99.90
2023-05-20T14:47:52.113Z,99.90
2023-05-20T14:50:18.706Z,99.90
2023-05-20T14:52:45.405Z,99.90
2023-05-20T14:55:12.007Z,99.90
2023-05-20T14:57:38.667Z,99.90
2023-05-20T15:00:05.548Z,99.90
2023-05-20T15:02:32.271Z,99.90
2023-05-20T15:04:58.967Z,99.90
2023-05-20T15:07:26.645Z,99.90
2023-05-20T15:09:53.305Z,99.90
2023-05-20T15:12:19.985Z,99.90
2023-05-20T15:14:46.710Z,99.90
2023-05-20T15:17:13.450Z,99.90
2023-05-20T15:19:41.705Z,99.90
2023-05-20T15:22:08.530Z,99.90
2023-05-20T15:24:35.059Z,99.90
2023-05-20T15:27:01.708Z,99.90
2023-05-20T15:29:28.267Z,99.90
2023-05-20T15:31:54.950Z,99.90
2023-05-20T15:34:21.946Z,99.90
2023-05-20T15:36:48.539Z,99.90
2023-05-20T15:39:15.872Z,99.90
2023-05-20T15:41:42.689Z,99.90
2023-05-20T15:44:09.352Z,99.90
2023-05-20T15:46:36.207Z,99.90
2023-05-20T15:49:02.962Z,99.90
2023-05-20T15:51:29.728Z,99.90
2023-05-20T15:53:56.404Z,99.90
2023-05-20T15:56:23.229Z,99.90
2023-05-20T15:58:49.900Z,99.90
2023-05-20T16:01:16.558Z,99.90
2023-05-20T16:03:43.691Z,99.90
2023-05-20T16:06:11.723Z,99.90
2023-05-20T16:08:38.470Z,99.90
2023-05-20T16:11:05.130Z,99.90
2023-05-20T16:13:31.732Z,99.90
2023-05-20T16:15:58.362Z,99.90
2023-05-20T16:18:26.189Z,99.90
2023-05-20T16:20:52.773Z,99.90
2023-05-20T16:23:19.352Z,99.90
2023-05-20T16:25:45.986Z,99.90
2023-05-20T16:28:12.701Z,99.90
2023-05-20T16:30:39.247Z,99.90
2023-05-20T16:33:05.924Z,99.90
2023-05-20T16:35:32.479Z,99.90
2023-05-20T16:37:59.232Z,99.90
2023-05-20T16:40:26.198Z,99.90
2023-05-20T16:42:52.812Z,99.90
2023-05-20T16:45:20.225Z,99.90
2023-05-20T16:47:46.929Z,99.90
2023-05-20T16:50:14.568Z,99.90
2023-05-20T16:52:42.380Z,99.90
2023-05-20T16:55:10.553Z,99.90
2023-05-20T16:57:37.391Z,99.90
2023-05-20T17:00:08.241Z,99.90
2023-05-20T17:02:35.930Z,99.90
2023-05-20T17:05:02.634Z,99.90
2023-05-20T17:07:29.264Z,99.90
2023-05-20T17:09:55.854Z,99.90
2023-05-20T17:12:22.463Z,99.90
2023-05-20T17:14:49.044Z,99.90
2023-05-20T17:17:15.829Z,99.90
2023-05-20T17:19:42.479Z,99.90
2023-05-20T17:22:09.150Z,99.90
2023-05-20T17:24:35.853Z,99.90
2023-05-20T17:27:03.739Z,99.90
2023-05-20T17:29:30.501Z,99.90
2023-05-20T17:31:57.159Z,99.90
2023-05-20T17:34:23.714Z,99.90
2023-05-20T17:36:50.435Z,99.90
2023-05-20T17:39:17.108Z,99.90
2023-05-20T17:41:44.306Z,99.90
2023-05-20T17:44:11.233Z,99.90
2023-05-20T17:46:38.125Z,99.90
2023-05-20T17:49:04.905Z,99.90
2023-05-20T17:51:31.844Z,99.90
2023-05-20T17:53:58.479Z,99.90
2023-05-20T17:56:26.439Z,99.90
2023-05-20T17:58:54.859Z,99.90
2023-05-20T18:01:22.639Z,99.90
2023-05-20T18:03:49.422Z,99.90
2023-05-20T18:06:17.899Z,99.90
2023-05-20T18:08:44.540Z,99.90
2023-05-20T18:11:11.279Z,99.90
2023-05-20T18:13:37.886Z,99.90
2023-05-20T18:16:05.057Z,99.90
2023-05-20T18:18:31.747Z,99.90
2023-05-20T18:20:59.869Z,99.90
2023-05-20T18:23:26.444Z,99.90
2023-05-20T18:25:53.035Z,99.90
2023-05-20T18:28:19.884Z,99.90
2023-05-20T18:30:46.484Z,99.90
2023-05-20T18:33:13.618Z,99.90
2023-05-20T18:35:40.322Z,99.90
2023-05-20T18:38:07.173Z,99.90
2023-05-20T18:40:34.101Z,99.90
2023-05-20T18:43:01.116Z,99.90
2023-05-20T18:45:27.726Z,99.90
2023-05-20T18:47:54.974Z,99.90
2023-05-20T18:50:23.503Z,99.90
2023-05-20T18:52:50.079Z,99.90
2023-05-20T18:55:16.787Z,99.90
2023-05-20T18:57:43.406Z,99.90
2023-05-20T19:00:12.322Z,99.90
2023-05-20T19:02:39.792Z,99.90
2023-05-20T19:05:10.328Z,99.90
2023-05-20T19:07:37.399Z,99.90
2023-05-20T19:10:04.205Z,99.90
2023-05-20T19:12:30.778Z,99.90
2023-05-20T19:14:57.536Z,99.90
2023-05-20T19:17:24.492Z,99.90
2023-05-20T19:19:51.281Z,99.90
2023-05-20T19:22:17.862Z,99.90
2023-05-20T19:24:44.423Z,99.90
2023-05-20T19:27:11.161Z,99.90
2023-05-20T19:29:37.839Z,99.90
2023-05-20T19:32:04.661Z,99.90
2023-05-20T19:34:31.302Z,99.90
2023-05-20T19:36:57.891Z,99.90
2023-05-20T19:39:24.636Z,99.90
2023-05-20T19:41:52.989Z,99.90
2023-05-20T19:44:19.529Z,99.90
2023-05-20T19:46:46.798Z,99.90
2023-05-20T19:49:13.355Z,99.90
2023-05-20T19:51:40.013Z,99.90
2023-05-20T19:54:07.353Z,99.90
2023-05-20T19:56:33.921Z,99.90
2023-05-20T19:59:01.712Z,99.90
2023-05-20T20:01:28.750Z,99.90
2023-05-20T20:03:55.627Z,99.90
2023-05-20T20:06:22.381Z,99.90
2023-05-20T20:08:49.165Z,99.90
2023-05-20T20:11:15.980Z,99.90
2023-05-20T20:13:42.597Z,99.90
2023-05-20T20:16:09.238Z,99.90
2023-05-20T20:18:36.034Z,99.90
2023-05-20T20:21:05.818Z,99.90
2023-05-20T20:23:32.831Z,99.90
2023-05-20T20:25:59.588Z,99.90
2023-05-20T20:28:26.225Z,99.90
2023-05-20T20:30:52.991Z,99.90
2023-05-20T20:33:19.794Z,99.90
2023-05-20T20:35:46.734Z,99.90
2023-05-20T20:38:13.601Z,99.90
2023-05-20T20:40:42.196Z,99.90
2023-05-20T20:43:09.476Z,99.90
2023-05-20T20:45:39.059Z,99.90
2023-05-20T20:48:07.647Z,1.00
2023-05-20T20:50:35.835Z,1.00
2023-05-20T20:53:03.402Z,1.00
2023-05-20T20:55:30.632Z,1.00
2023-05-20T20:57:57.907Z,99.90
2023-05-20T21:00:26.704Z,1.00
2023-05-20T21:02:54.363Z,1.00
2023-05-20T21:05:21.547Z,1.00
2023-05-20T21:07:55.039Z,1.00
2023-05-20T21:10:22.983Z,1.00
2023-05-20T21:12:51.283Z,1.00
2023-05-20T21:15:17.857Z,1.00
2023-05-20T21:17:44.556Z,1.00
2023-05-20T21:20:11.994Z,1.00
2023-05-20T21:22:38.627Z,1.00
2023-05-20T21:25:05.834Z,1.00
2023-05-20T21:27:32.607Z,1.00
2023-05-20T21:29:59.167Z,1.00
2023-05-20T21:32:25.936Z,1.00
2023-05-20T21:34:52.520Z,1.00
2023-05-20T21:37:19.041Z,1.00
2023-05-20T21:39:45.611Z,1.00
2023-05-20T21:42:12.214Z,1.00
2023-05-20T21:44:38.778Z,1.00
2023-05-20T21:47:05.648Z,1.00
2023-05-20T21:49:33.006Z,1.00
2023-05-20T21:51:59.713Z,1.00
2023-05-20T21:54:26.299Z,1.00
2023-05-20T21:56:52.970Z,1.00
2023-05-20T21:59:19.577Z,1.00
2023-05-20T22:01:46.393Z,1.00
2023-05-20T22:04:13.113Z,1.00
2023-05-20T22:06:39.951Z,1.00
2023-05-20T22:09:06.834Z,1.00
2023-05-20T22:11:33.799Z,1.00
2023-05-20T22:14:00.594Z,1.00
2023-05-20T22:16:27.144Z,1.00
2023-05-20T22:18:54.284Z,1.00
2023-05-20T22:21:21.714Z,1.00
2023-05-20T22:23:48.393Z,1.00
2023-05-20T22:26:15.007Z,1.00
2023-05-20T22:28:41.696Z,1.00
2023-05-20T22:31:08.513Z,1.00
2023-05-20T22:33:35.125Z,1.00
2023-05-20T22:36:02.855Z,1.00
2023-05-20T22:38:30.716Z,1.00
2023-05-20T22:40:57.282Z,1.00
2023-05-20T22:43:24.665Z,1.00
2023-05-20T22:45:51.369Z,1.00
2023-05-20T22:48:19.212Z,1.00
2023-05-20T22:50:46.339Z,1.00
2023-05-20T22:53:12.949Z,1.00
2023-05-20T22:55:39.794Z,1.00
2023-05-20T22:58:08.055Z,16.00
2023-05-20T23:00:35.076Z,9.00
2023-05-20T23:03:01.689Z,17.30
2023-05-20T23:05:30.045Z,20.10
2023-05-20T23:07:57.071Z,1.00
2023-05-20T23:10:25.739Z,1.00
2023-05-20T23:12:52.479Z,1.00
2023-05-20T23:15:19.218Z,72.40
2023-05-20T23:17:45.933Z,99.90
2023-05-20T23:20:14.262Z,99.90
2023-05-20T23:22:40.948Z,75.70
2023-05-20T23:25:07.732Z,99.60
2023-05-20T23:27:34.385Z,98.90
2023-05-20T23:30:01.166Z,99.90
2023-05-20T23:32:27.764Z,34.90
2023-05-20T23:34:55.216Z,1.00
2023-05-20T23:37:22.362Z,1.00
2023-05-20T23:39:48.925Z,1.00
2023-05-20T23:42:15.625Z,1.00
2023-05-20T23:44:42.194Z,1.00
2023-05-20T23:47:09.658Z,1.00
2023-05-20T23:49:37.106Z,1.00
2023-05-20T23:52:03.881Z,1.00
2023-05-20T23:54:34.198Z,1.00
2023-05-20T23:57:01.004Z,1.00
2023-05-20T23:59:27.652Z,1.00
